Dinslaken/Schwarze Heide Airport

EDLD · North Rhine-Westphalia, Niemcy

Historia METAR EDLD · Dinslaken/Schwarze Heide Airport

Poniżej widzisz METAR-y z ostatnich kilku dni. Wybierz rok, aby przeglądać starsze METAR-y, począwszy od roku 2007.

18 maja 2024

Czas Kod Pogoda Temp. Widoczność Sufit Wiatr METAR/SPECI
21:20
V
15 °C 10 km+ - Var Var 1 kt METAR EDDL 181920Z AUTO VRB01KT 9999 VCSH FEW///TCU 15/11 Q1009 NOSIG
20:50
V
16 °C 10 km+ - 130° 130° 4 kt METAR EDDL 181850Z AUTO 13004KT CAVOK 16/11 Q1009 NOSIG
20:20
V
17 °C 10 km+ - 100° 100° 9 kt METAR EDDL 181820Z AUTO 10009KT 9999 -SHRA FEW043 FEW///TCU 17/11 Q1009 RESHRA NOSIG
19:50
V
19 °C 10 km+ - 020° 020° 3 kt METAR EDDL 181750Z AUTO 02003KT 9999 -SHRA FEW046 FEW///CB 19/13 Q1009 TEMPO SHRA
19:20
V
19 °C 10 km+ - Var Var 2 kt METAR EDDL 181720Z AUTO VRB02KT CAVOK 19/13 Q1009 NOSIG
18:50
V
19 °C 10 km+ - 060° 060° 4 kt METAR EDDL 181650Z AUTO 06004KT CAVOK 19/12 Q1009 NOSIG
18:20
V
19 °C 10 km+ - 050° 050° 5 kt METAR EDDL 181620Z AUTO 05005KT CAVOK 19/12 Q1009 NOSIG
17:50
V
19 °C 10 km+ - 040° 040° 6 kt METAR EDDL 181550Z AUTO 04006KT CAVOK 19/12 Q1009 NOSIG
17:20
V
20 °C 10 km+ - 030° 030° 6 kt METAR EDDL 181520Z AUTO 03006KT 360V070 CAVOK 20/12 Q1009 NOSIG
16:50
V
20 °C 10 km+ - 040° 040° 11 kt METAR EDDL 181450Z AUTO 04011KT 360V060 9999 VCSH FEW///TCU 20/11 Q1009 NOSIG
16:20
V
20 °C 10 km+ - 360° 360° 10 kt METAR EDDL 181420Z AUTO 36010KT 9999 FEW048 20/11 Q1009 NOSIG
15:50
V
21 °C 10 km+ - 020° 020° 4 kt METAR EDDL 181350Z AUTO 02004KT 350V050 CAVOK 21/10 Q1009 NOSIG
15:20
V
21 °C 10 km+ - 040° 040° 3 kt METAR EDDL 181320Z AUTO 04003KT 350V090 9999 VCSH FEW///TCU 21/10 Q1009 NOSIG
14:50
V
20 °C 10 km+ - 020° 020° 8 kt METAR EDDL 181250Z AUTO 02008KT 350V050 9999 -SHRA FEW///TCU 20/11 Q1009 TEMPO SHRA
14:20
V
21 °C 10 km+ - 040° 040° 4 kt METAR EDDL 181220Z AUTO 04004KT 350V070 9999 FEW029 21/11 Q1009 NOSIG
13:50
V
20 °C 10 km+ - 310° 310° 3 kt METAR EDDL 181150Z AUTO 31003KT 260V360 9999 VCSH FEW///TCU 20/12 Q1010 NOSIG
13:20
V
20 °C 10 km+ - 260° 260° 4 kt METAR EDDL 181120Z AUTO 26004KT 220V290 CAVOK 20/12 Q1010 BECMG 36006KT
12:50
V
21 °C 10 km+ - 260° 260° 7 kt METAR EDDL 181050Z AUTO 26007KT 230V300 9999 FEW049 21/13 Q1009 BECMG 36006KT
12:20
V
20 °C 10 km+ - 240° 240° 5 kt METAR EDDL 181020Z AUTO 24005KT 190V310 9999 FEW048 20/13 Q1010 BECMG 36006KT
11:50
V
20 °C 10 km+ - Var Var 3 kt METAR EDDL 180950Z AUTO VRB03KT 9999 FEW028 20/12 Q1010 BECMG 36006KT
11:20
V
19 °C 10 km+ - 340° 340° 2 kt METAR EDDL 180920Z AUTO 34002KT 9999 FEW021 19/12 Q1010 NOSIG
10:50
V
19 °C 10 km+ - 010° 010° 4 kt METAR EDDL 180850Z AUTO 01004KT 300V080 9999 FEW018 19/12 Q1010 NOSIG
10:20
V
18 °C 10 km+ - 360° 360° 4 kt METAR EDDL 180820Z AUTO 36004KT 280V060 CAVOK 18/12 Q1010 NOSIG
09:50
V
17 °C 10 km+ - Var Var 2 kt METAR EDDL 180750Z AUTO VRB02KT 9999 FEW004 17/13 Q1010 NOSIG
09:20
L
14 °C 4 km 200 ft Var Var 2 kt METAR EDDL 180720Z AUTO VRB02KT 4000 BR BKN002 14/14 Q1010 BECMG 5000 BKN005
08:50
L
14 °C 800 m 200 ft 360° 360° 3 kt METAR EDDL 180650Z AUTO 36003KT 290V030 2100 0800 R23R/0900N R23L/2000N BCFG BKN002 14/13 Q1010
08:20
L
14 °C 350 m - 330° 330° 3 kt METAR EDDL 180620Z AUTO 33003KT 1200 0350 R23R/0500N R23L/0800U BCFG SCT002 14/13 Q1009 TEMPO 0700 FG BKN002
07:50
L
14 °C 600 m 200 ft Var Var 2 kt METAR EDDL 180550Z AUTO VRB02KT 2600 0600 R23R/0650D R23L/P2000N BCFG BKN002 14/13 Q1009 BECMG 4000 BKN006
07:20
L
14 °C 1,2 km 800 ft 330° 330° 3 kt METAR EDDL 180520Z AUTO 33003KT 270V010 2200 1200 R23R/1900D R23L/P2000N BR SCT003 BKN008 14/14 Q1009 BECMG 3000 SCT009
06:50
L
14 °C 2,1 km 300 ft Var Var 1 kt METAR EDDL 180450Z AUTO VRB01KT 2100 BR BKN003 BKN008 14/13 Q1009 BECMG 3000 BKN006
06:20
L
13 °C 1,8 km 100 ft 140° 140° 2 kt METAR EDDL 180420Z AUTO 14002KT 1800 BR OVC001 13/13 Q1009 TEMPO 0600 FG
05:50
L
13 °C 300 m 300 ft 130° 130° 3 kt METAR EDDL 180350Z AUTO 13003KT 0400 0300 R23R/0650N R23L/1000U FG VV003 13/13 Q1009 TEMPO 0700
05:20
L
11 °C 200 m 200 ft 090° 090° 4 kt METAR EDDL 180320Z AUTO 09004KT 0250 0200 R23R/1900U R23L/P2000N FG VV002 11/11 Q1008 TEMPO 0800
04:50
L
11 °C 600 m - Var Var 1 kt METAR EDDL 180250Z AUTO VRB01KT 9999 0600 R05L/1900N R05R/1300D BCFG FEW002 11/10 Q1008 TEMPO 3000 BCFG
04:20
V
12 °C 10 km+ - 030° 030° 2 kt METAR EDDL 180220Z AUTO 03002KT CAVOK 12/11 Q1008 TEMPO BKN005
03:50
V
12 °C 10 km+ - 140° 140° 3 kt METAR EDDL 180150Z AUTO 14003KT CAVOK 12/11 Q1008 NOSIG
03:20
V
12 °C 10 km+ - 080° 080° 2 kt METAR EDDL 180120Z AUTO 08002KT CAVOK 12/11 Q1008 NOSIG
02:50
V
13 °C 10 km+ - Var Var 1 kt METAR EDDL 180050Z AUTO VRB01KT CAVOK 13/12 Q1008 NOSIG
02:20
V
13 °C 10 km+ - 340° 340° 1 kt METAR EDDL 180020Z AUTO 34001KT CAVOK 13/12 Q1008 NOSIG
01:50
V
14 °C 10 km+ - 200° 200° 2 kt METAR EDDL 172350Z AUTO 20002KT CAVOK 14/13 Q1008 NOSIG
01:20
V
14 °C 10 km+ - 040° 040° 1 kt METAR EDDL 172320Z AUTO 04001KT CAVOK 14/13 Q1008 NOSIG
00:50
V
14 °C 10 km+ - 040° 040° 2 kt METAR EDDL 172250Z AUTO 04002KT CAVOK 14/13 Q1008 NOSIG
00:20
V
14 °C 10 km+ - 090° 090° 2 kt METAR EDDL 172220Z AUTO 09002KT CAVOK 14/12 Q1007 NOSIG

17 maja 2024

Czas Kod Pogoda Temp. Widoczność Sufit Wiatr METAR/SPECI
23:50
V
14 °C 10 km+ - Var Var 2 kt METAR EDDL 172150Z AUTO VRB02KT CAVOK 14/13 Q1007 NOSIG
23:20
V
15 °C 10 km+ - 010° 010° 4 kt METAR EDDL 172120Z AUTO 01004KT CAVOK 15/13 Q1007 NOSIG
22:50
V
15 °C 10 km+ - 360° 360° 6 kt METAR EDDL 172050Z AUTO 36006KT CAVOK 15/13 Q1007 NOSIG
22:20
V
15 °C 10 km+ - 350° 350° 6 kt METAR EDDL 172020Z AUTO 35006KT CAVOK 15/13 Q1007 NOSIG
21:50
V
15 °C 10 km+ - 350° 350° 2 kt METAR EDDL 171950Z AUTO 35002KT CAVOK 15/14 Q1007 NOSIG
21:20
V
16 °C 10 km+ - 360° 360° 3 kt METAR EDDL 171920Z AUTO 36003KT CAVOK 16/14 Q1007 NOSIG
20:50
V
17 °C 10 km+ - 350° 350° 2 kt METAR EDDL 171850Z AUTO 35002KT CAVOK 17/14 Q1007 NOSIG
20:20
V
18 °C 10 km+ - 360° 360° 1 kt METAR EDDL 171820Z AUTO 36001KT CAVOK 18/14 Q1007 NOSIG
19:50
V
19 °C 10 km+ - 030° 030° 2 kt METAR EDDL 171750Z AUTO 03002KT CAVOK 19/13 Q1007 NOSIG
19:20
V
20 °C 10 km+ - 040° 040° 4 kt METAR EDDL 171720Z AUTO 04004KT 9999 -SHRA FEW///TCU 20/12 Q1006 NOSIG
18:50
V
20 °C 10 km+ - 040° 040° 4 kt METAR EDDL 171650Z AUTO 04004KT 010V070 9999 FEW046 20/13 Q1006 NOSIG
18:20
V
20 °C 10 km+ - 030° 030° 4 kt METAR EDDL 171620Z AUTO 03004KT 360V060 CAVOK 20/14 Q1006 NOSIG
17:50
V
20 °C 10 km+ - 330° 330° 3 kt METAR EDDL 171550Z AUTO 33003KT 300V030 CAVOK 20/15 Q1006 NOSIG
17:20
V
19 °C 10 km+ - 350° 350° 3 kt METAR EDDL 171520Z AUTO 35003KT CAVOK 19/14 Q1006 NOSIG
16:50
V
19 °C 10 km+ - 020° 020° 3 kt METAR EDDL 171450Z AUTO 02003KT CAVOK 19/14 Q1006 NOSIG
16:20
V
19 °C 10 km+ 4.800 ft 030° 030° 4 kt METAR EDDL 171420Z AUTO 03004KT 9999 OVC048 19/13 Q1006 NOSIG
15:50
V
19 °C 10 km+ - 010° 010° 4 kt METAR EDDL 171350Z AUTO 01004KT 340V060 9999 FEW048 19/13 Q1006 NOSIG
15:20
V
19 °C 10 km+ - 360° 360° 4 kt METAR EDDL 171320Z AUTO 36004KT 330V030 CAVOK 19/14 Q1006 NOSIG
14:50
V
19 °C 10 km+ 4.100 ft 020° 020° 3 kt METAR EDDL 171250Z AUTO 02003KT 350V050 9999 FEW032 BKN041 OVC049 19/14 Q1006 NOSIG
14:20
V
18 °C 10 km+ 3.400 ft 020° 020° 6 kt METAR EDDL 171220Z AUTO 02006KT 9999 BKN034 BKN042 18/14 Q1006 NOSIG
13:50
V
18 °C 10 km+ 3.600 ft 360° 360° 6 kt METAR EDDL 171150Z AUTO 36006KT 320V030 9999 FEW024 OVC036 18/14 Q1006 NOSIG
13:20
V
18 °C 10 km+ 4.200 ft 360° 360° 5 kt METAR EDDL 171120Z AUTO 36005KT 9999 FEW024 BKN042 OVC048 18/14 Q1006 NOSIG
12:50
V
18 °C 10 km+ 4.000 ft 010° 010° 5 kt METAR EDDL 171050Z AUTO 01005KT 350V050 9999 SCT020 BKN040 OVC049 18/14 Q1006 NOSIG
12:20
M
18 °C 10 km+ 1.800 ft 340° 340° 8 kt METAR EDDL 171020Z AUTO 34008KT 310V010 9999 BKN018 BKN030 OVC044 18/14 Q1006 NOSIG
11:50
M
18 °C 10 km+ 1.900 ft 350° 350° 10 kt METAR EDDL 170950Z AUTO 35010KT 9999 BKN019 BKN038 18/14 Q1006 NOSIG
11:20
M
17 °C 10 km+ 1.600 ft 330° 330° 9 kt METAR EDDL 170920Z AUTO 33009KT 300V020 9999 BKN016 17/14 Q1006 NOSIG
10:50
M
17 °C 10 km+ 1.500 ft 310° 310° 7 kt METAR EDDL 170850Z AUTO 31007KT 9999 BKN015 17/14 Q1006 BECMG BKN015
10:20
M
16 °C 6 km 1.500 ft 330° 330° 5 kt METAR EDDL 170820Z AUTO 33005KT 6000 SCT009 BKN015 16/14 Q1006 TEMPO BKN009
09:50
M
16 °C 8 km 1.100 ft 340° 340° 6 kt METAR EDDL 170750Z AUTO 34006KT 300V030 8000 SCT007 BKN011 16/14 Q1006 TEMPO BKN007
09:20
I
15 °C 6 km 600 ft 010° 010° 6 kt METAR EDDL 170720Z AUTO 01006KT 340V040 6000 OVC006 15/14 Q1006
08:50
I
15 °C 5 km 500 ft 340° 340° 5 kt METAR EDDL 170650Z AUTO 34005KT 5000 BR BKN005 15/14 Q1006 TEMPO 4500 BR
08:20
I
14 °C 4,8 km 1.200 ft 330° 330° 5 kt METAR EDDL 170620Z AUTO 33005KT 4800 BR SCT005 BKN012 14/13 Q1006
07:50
L
14 °C 4,4 km 300 ft Var Var 2 kt METAR EDDL 170550Z AUTO VRB02KT 4400 BR BKN003 BKN011 14/13 Q1006 BECMG 6000
07:20
L
13 °C 5 km 300 ft Var Var 2 kt METAR EDDL 170520Z AUTO VRB02KT 5000 BR BKN003 13/13 Q1006 NOSIG
06:50
L
13 °C 5 km 300 ft 360° 360° 3 kt METAR EDDL 170450Z AUTO 36003KT 330V040 5000 BR BKN003 BKN006 13/12 Q1006 TEMPO 4500 BR
06:20
I
13 °C 4,4 km - 350° 350° 4 kt METAR EDDL 170420Z AUTO 35004KT 4400 BR SCT004 13/12 Q1006 TEMPO 6000 BKN004
05:50
L
12 °C 4,5 km 300 ft 330° 330° 4 kt METAR EDDL 170350Z AUTO 33004KT 4500 BR BKN003 12/12 Q1006 TEMPO 6000 BKN006
05:20
L
13 °C 6 km 300 ft Var Var 2 kt METAR EDDL 170320Z AUTO VRB02KT 6000 BKN003 BKN010 13/12 Q1006 TEMPO 3500 BR
04:50
L
12 °C 6 km 300 ft 330° 330° 1 kt METAR EDDL 170250Z AUTO 33001KT 6000 BKN003 BKN007 12/12 Q1006 TEMPO 3500 BR
04:20
L
12 °C 6 km 300 ft Var Var 2 kt METAR EDDL 170220Z AUTO VRB02KT 6000 BKN003 12/12 Q1006 TEMPO 3500 BR
03:50
L
11 °C 650 m - Var Var 1 kt METAR EDDL 170150Z AUTO VRB01KT 5000 0650 R05L/P2000N R05R/P2000N BCFG NSC 11/11 Q1006 TEMPO 3500 BCFG
03:20
L
12 °C 1 km - 320° 320° 3 kt METAR EDDL 170120Z AUTO 32003KT 290V030 5000 1000 R05L/P2000N R05R/P2000N BR NSC 12/11 Q1006 TEMPO 3500 BCFG
02:50
L
11 °C 400 m - Var Var 2 kt METAR EDDL 170050Z AUTO VRB02KT 7000 0400 R05L/P2000N R05R/P2000N BCFG NSC 11/11 Q1006 TEMPO 3500 BCFG
02:20
L
11 °C 1,4 km - 030° 030° 4 kt METAR EDDL 170020Z AUTO 03004KT 4400 1400 R05L/P2000N R05R/P2000N BR NSC 11/11 Q1006 TEMPO 2500 BCFG
01:50
L
12 °C 1 km - 310° 310° 3 kt METAR EDDL 162350Z AUTO 31003KT 280V340 6000 1000 R05L/P2000N R05R/P2000N BR NSC 12/12 Q1006 TEMPO 3500 BCFG
01:20
V
12 °C 10 km+ - 360° 360° 2 kt METAR EDDL 162320Z AUTO 36002KT CAVOK 12/12 Q1006 TEMPO 3500 BCFG
00:50
V
12 °C 10 km+ - Var Var 1 kt METAR EDDL 162250Z AUTO VRB01KT CAVOK 12/12 Q1006 NOSIG
00:20
V
13 °C 10 km+ - 020° 020° 2 kt METAR EDDL 162220Z AUTO 02002KT CAVOK 13/12 Q1006 NOSIG

16 maja 2024

Czas Kod Pogoda Temp. Widoczność Sufit Wiatr METAR/SPECI
23:50
V
12 °C 10 km+ - 060° 060° 3 kt METAR EDDL 162150Z AUTO 06003KT CAVOK 12/12 Q1006 NOSIG
23:20
V
13 °C 10 km+ - 050° 050° 3 kt METAR EDDL 162120Z AUTO 05003KT CAVOK 13/12 Q1006 NOSIG
22:50
V
13 °C 10 km+ - 360° 360° 2 kt METAR EDDL 162050Z AUTO 36002KT CAVOK 13/13 Q1006 NOSIG
22:20
V
14 °C 10 km+ - 020° 020° 2 kt METAR EDDL 162020Z AUTO 02002KT CAVOK 14/13 Q1006 NOSIG
21:50
V
14 °C 10 km+ - 060° 060° 3 kt METAR EDDL 161950Z AUTO 06003KT CAVOK 14/13 Q1006 NOSIG
21:20
V
15 °C 10 km+ - 030° 030° 3 kt METAR EDDL 161920Z AUTO 03003KT CAVOK 15/13 Q1006 NOSIG
20:50
V
15 °C 10 km+ - 060° 060° 5 kt METAR EDDL 161850Z AUTO 06005KT CAVOK 15/13 Q1006 NOSIG
20:20
V
15 °C 10 km+ - 060° 060° 5 kt METAR EDDL 161820Z AUTO 06005KT CAVOK 15/14 Q1006 NOSIG
19:50
V
16 °C 10 km+ - 060° 060° 6 kt METAR EDDL 161750Z AUTO 06006KT CAVOK 16/14 Q1006 NOSIG
19:20
V
17 °C 10 km+ - 020° 020° 3 kt METAR EDDL 161720Z AUTO 02003KT 310V050 CAVOK 17/14 Q1005 NOSIG
18:50
V
16 °C 10 km+ - Var Var 3 kt METAR EDDL 161650Z AUTO VRB03KT 9999 -SHRA FEW006 FEW///TCU 16/14 Q1005 RESHRA NOSIG
18:20
V
15 °C 10 km+ - Var Var 2 kt METAR EDDL 161620Z AUTO VRB02KT 9999 -RA NSC 15/14 Q1005 RESHRA NOSIG
17:50
V
15 °C 10 km+ - Var Var 1 kt METAR EDDL 161550Z AUTO VRB01KT 9999 SHRA FEW///TCU 15/14 Q1005 RETS BECMG NSW
17:20
V
14 °C 10 km+ - 040° 040° 3 kt METAR EDDL 161520Z AUTO 04003KT 340V150 9999 +TSRA FEW007 SCT032 SCT///CB 14/14 Q1005 BECMG NSW
16:50
V
17 °C 10 km+ - 230° 230° 14 kt METAR EDDL 161450Z AUTO 23014KT 210V270 9999 +TSGRRA FEW043 SCT///CB 17/11 Q1005 TEMPO 23020G30KT 2000 TSRA
16:20
V
21 °C 10 km+ - 220° 220° 8 - 20 kt METAR EDDL 161420Z AUTO 22008G20KT 170V260 9999 VCTS FEW045 FEW///CB 21/13 Q1004 BECMG 21020G35KT 2000 +TSRA SCT040CB
15:50
V
21 °C 10 km+ - 140° 140° 7 kt METAR EDDL 161350Z AUTO 14007KT 100V200 9999 FEW042 21/12 Q1004 TEMPO 21015G25KT 4000 SHRA SCT040CB
15:20
V
22 °C 10 km+ - 130° 130° 7 kt METAR EDDL 161320Z AUTO 13007KT 090V190 9999 FEW045 22/12 Q1004 TEMPO SHRA SCT040CB
14:50
V
21 °C 10 km+ - Var Var 4 kt METAR EDDL 161250Z AUTO VRB04KT 9999 FEW025 21/12 Q1004 NOSIG
14:20
V
20 °C 10 km+ - 180° 180° 9 kt METAR EDDL 161220Z AUTO 18009KT 9999 FEW030 20/13 Q1005 NOSIG
13:50
V
19 °C 10 km+ - 190° 190° 9 kt METAR EDDL 161150Z AUTO 19009KT 9999 FEW032 SCT047 19/13 Q1005 NOSIG
13:20
V
19 °C 10 km+ 3.800 ft 220° 220° 8 kt METAR EDDL 161120Z AUTO 22008KT 180V250 9999 FEW028 BKN038 BKN049 19/13 Q1005 NOSIG
12:50
V
19 °C 10 km+ - 200° 200° 9 kt METAR EDDL 161050Z AUTO 20009KT 9999 SCT030 19/14 Q1004 NOSIG
12:20
V
20 °C 10 km+ - 190° 190° 8 kt METAR EDDL 161020Z AUTO 19008KT 160V230 9999 SCT028 20/13 Q1004 NOSIG
11:50
V
19 °C 10 km+ 4.900 ft 200° 200° 10 kt METAR EDDL 160950Z AUTO 20010KT 170V230 9999 SCT023 BKN049 19/14 Q1004 NOSIG
11:20
V
18 °C 10 km+ 4.600 ft 190° 190° 11 kt METAR EDDL 160920Z AUTO 19011KT 9999 SCT020 SCT030 BKN046 18/14 Q1004 NOSIG
10:50
V
18 °C 10 km+ 3.800 ft 180° 180° 11 kt METAR EDDL 160850Z AUTO 18011KT 140V220 9999 SCT018 BKN038 18/14 Q1004 NOSIG
10:20
M
18 °C 10 km+ 2.300 ft 160° 160° 11 kt METAR EDDL 160820Z AUTO 16011KT 130V190 9999 SCT016 BKN023 BKN037 18/14 Q1004 NOSIG
09:50
M
18 °C 10 km+ 1.500 ft 170° 170° 11 kt METAR EDDL 160750Z AUTO 17011KT 9999 BKN015 BKN021 18/14 Q1003 TEMPO BKN014
09:20
M
17 °C 8 km 2.000 ft 150° 150° 9 kt METAR EDDL 160720Z AUTO 15009KT 110V180 8000 SCT013 BKN020 17/14 Q1003 TEMPO BKN013
08:50
M
17 °C 7 km 1.600 ft 150° 150° 9 kt METAR EDDL 160650Z AUTO 15009KT 120V180 7000 SCT012 BKN016 17/14 Q1003 TEMPO BKN014
08:20
M
17 °C 7 km - 140° 140° 7 kt METAR EDDL 160620Z AUTO 14007KT 100V170 7000 FEW012 17/15 Q1003 TEMPO BKN012
07:50
M
16 °C 7 km - 150° 150° 4 kt METAR EDDL 160550Z AUTO 15004KT 110V200 7000 SCT042 16/14 Q1003 NOSIG
Zgłoś zmianę